createdAt,value
2023-05-20T00:00:49.092Z,93.00
2023-05-20T00:03:17.048Z,93.00
2023-05-20T00:05:44.406Z,93.00
2023-05-20T00:08:11.412Z,93.40
2023-05-20T00:10:39.066Z,93.20
2023-05-20T00:13:06.619Z,93.30
2023-05-20T00:15:34.867Z,93.30
2023-05-20T00:18:03.001Z,93.40
2023-05-20T00:20:30.428Z,93.50
2023-05-20T00:22:57.327Z,93.60
2023-05-20T00:25:24.213Z,93.50
2023-05-20T00:27:51.070Z,93.60
2023-05-20T00:30:17.998Z,93.70
2023-05-20T00:32:44.877Z,93.70
2023-05-20T00:35:11.880Z,93.90
2023-05-20T00:37:38.716Z,94.00
2023-05-20T00:40:06.694Z,94.00
2023-05-20T00:42:33.653Z,94.30
2023-05-20T00:45:01.120Z,94.30
2023-05-20T00:47:32.877Z,94.30
2023-05-20T00:50:01.187Z,94.40
2023-05-20T00:52:31.310Z,94.40
2023-05-20T00:54:59.822Z,94.50
2023-05-20T00:57:27.225Z,94.50
2023-05-20T00:59:54.270Z,94.60
2023-05-20T01:02:22.035Z,94.60
2023-05-20T01:04:49.180Z,94.80
2023-05-20T01:07:17.873Z,94.90
2023-05-20T01:09:45.533Z,94.90
2023-05-20T01:12:21.166Z,95.10
2023-05-20T01:15:09.710Z,95.10
2023-05-20T01:17:48.598Z,95.20
2023-05-20T01:20:17.050Z,95.20
2023-05-20T01:22:54.678Z,95.30
2023-05-20T01:25:22.002Z,95.30
2023-05-20T01:27:50.202Z,95.20
2023-05-20T01:30:17.540Z,95.30
2023-05-20T01:32:52.610Z,95.20
2023-05-20T01:35:23.121Z,95.30
2023-05-20T01:37:52.356Z,95.20
2023-05-20T01:40:21.188Z,95.30
2023-05-20T01:42:53.082Z,95.30
2023-05-20T01:45:20.973Z,95.50
2023-05-20T01:47:48.276Z,95.50
2023-05-20T01:50:15.236Z,95.60
2023-05-20T01:52:42.252Z,95.60
2023-05-20T01:55:09.770Z,95.80
2023-05-20T01:57:36.743Z,95.80
2023-05-20T02:00:04.660Z,95.70
2023-05-20T02:02:31.633Z,95.80
2023-05-20T02:04:58.554Z,95.90
2023-05-20T02:07:25.414Z,96.30
2023-05-20T02:09:52.520Z,96.20
2023-05-20T02:12:19.505Z,96.30
2023-05-20T02:14:47.851Z,96.40
2023-05-20T02:17:16.626Z,96.30
2023-05-20T02:19:45.412Z,96.40
2023-05-20T02:22:12.713Z,96.60
2023-05-20T02:24:39.641Z,96.60
2023-05-20T02:27:07.060Z,96.50
2023-05-20T02:29:34.206Z,96.40
2023-05-20T02:32:01.527Z,96.40
2023-05-20T02:34:30.362Z,96.50
2023-05-20T02:36:57.421Z,96.40
2023-05-20T02:39:24.299Z,96.40
2023-05-20T02:41:51.208Z,96.40
2023-05-20T02:44:18.185Z,96.40
2023-05-20T02:46:45.022Z,96.60
2023-05-20T02:49:11.969Z,96.60
2023-05-20T02:51:40.248Z,96.60
2023-05-20T02:54:07.119Z,96.70
2023-05-20T02:56:34.332Z,96.80
2023-05-20T02:59:01.551Z,96.80
2023-05-20T03:01:29.205Z,96.90
2023-05-20T03:03:56.289Z,97.20
2023-05-20T03:06:23.321Z,97.10
2023-05-20T03:08:50.194Z,97.20
2023-05-20T03:11:17.171Z,97.20
2023-05-20T03:13:44.021Z,97.20
2023-05-20T03:16:13.138Z,97.20
2023-05-20T03:18:40.790Z,97.30
2023-05-20T03:21:08.291Z,97.30
2023-05-20T03:23:35.550Z,97.40
2023-05-20T03:26:03.334Z,97.40
2023-05-20T03:28:30.182Z,97.40
2023-05-20T03:30:57.064Z,97.50
2023-05-20T03:33:26.326Z,97.60
2023-05-20T03:35:53.261Z,97.60
2023-05-20T03:38:20.291Z,97.60
2023-05-20T03:40:47.219Z,97.70
2023-05-20T03:43:14.052Z,97.70
2023-05-20T03:45:41.079Z,97.80
2023-05-20T03:48:08.331Z,97.90
2023-05-20T03:50:35.558Z,97.90
2023-05-20T03:53:02.473Z,97.90
2023-05-20T03:55:29.368Z,97.90
2023-05-20T03:57:56.367Z,98.10
2023-05-20T04:00:24.084Z,98.10
2023-05-20T04:02:51.155Z,98.20
2023-05-20T04:05:18.521Z,98.30
2023-05-20T04:07:45.518Z,98.40
2023-05-20T04:10:12.616Z,98.50
2023-05-20T04:12:39.818Z,98.50
2023-05-20T04:15:07.778Z,99.00
2023-05-20T04:17:37.690Z,98.60
2023-05-20T04:20:07.245Z,98.70
2023-05-20T04:22:34.900Z,98.80
2023-05-20T04:25:03.708Z,99.00
2023-05-20T04:27:31.413Z,98.70
2023-05-20T04:29:58.821Z,98.80
2023-05-20T04:32:27.026Z,98.80
2023-05-20T04:34:56.124Z,98.80
2023-05-20T04:37:23.010Z,98.80
2023-05-20T04:39:50.019Z,98.80
2023-05-20T04:42:21.627Z,98.80
2023-05-20T04:44:48.985Z,98.80
2023-05-20T04:47:15.911Z,98.80
2023-05-20T04:49:42.815Z,98.80
2023-05-20T04:52:09.931Z,98.90
2023-05-20T04:54:36.813Z,99.00
2023-05-20T04:57:03.920Z,99.00
2023-05-20T04:59:30.915Z,99.10
2023-05-20T05:01:57.885Z,99.10
2023-05-20T05:04:24.853Z,99.20
2023-05-20T05:06:51.883Z,99.30
2023-05-20T05:09:18.818Z,99.40
2023-05-20T05:11:45.663Z,99.30
2023-05-20T05:14:13.008Z,99.40
2023-05-20T05:16:39.892Z,99.30
2023-05-20T05:19:07.357Z,99.30
2023-05-20T05:21:34.498Z,99.30
2023-05-20T05:24:01.344Z,99.20
2023-05-20T05:26:28.218Z,99.20
2023-05-20T05:28:55.658Z,99.40
2023-05-20T05:31:22.664Z,99.40
2023-05-20T05:33:49.579Z,99.40
2023-05-20T05:36:17.324Z,99.40
2023-05-20T05:38:44.547Z,99.40
2023-05-20T05:41:11.543Z,99.40
2023-05-20T05:43:38.371Z,99.40
2023-05-20T05:46:05.320Z,99.40
2023-05-20T05:48:32.287Z,99.60
2023-05-20T05:50:59.175Z,99.60
2023-05-20T05:53:26.016Z,99.60
2023-05-20T05:55:52.952Z,99.60
2023-05-20T05:58:19.937Z,99.60
2023-05-20T06:00:46.967Z,99.60
2023-05-20T06:03:14.027Z,99.60
2023-05-20T06:05:40.965Z,99.50
2023-05-20T06:08:08.157Z,99.50
2023-05-20T06:10:35.023Z,99.60
2023-05-20T06:13:01.901Z,99.90
2023-05-20T06:15:28.796Z,99.80
2023-05-20T06:17:55.778Z,99.80
2023-05-20T06:20:22.802Z,99.60
2023-05-20T06:22:49.713Z,99.60
2023-05-20T06:25:16.714Z,99.80
2023-05-20T06:27:43.675Z,99.70
2023-05-20T06:30:11.453Z,99.80
2023-05-20T06:32:38.486Z,99.60
2023-05-20T06:35:06.076Z,99.80
2023-05-20T06:37:33.003Z,99.80
2023-05-20T06:39:59.861Z,99.70
2023-05-20T06:42:26.796Z,99.60
2023-05-20T06:44:53.672Z,99.70
2023-05-20T06:47:21.326Z,99.80
2023-05-20T06:49:48.241Z,99.80
2023-05-20T06:52:15.231Z,99.60
2023-05-20T06:54:43.292Z,99.60
2023-05-20T06:57:10.736Z,99.50
2023-05-20T06:59:37.837Z,99.50
2023-05-20T07:02:05.948Z,99.50
2023-05-20T07:04:32.939Z,99.50
2023-05-20T07:06:59.851Z,99.60
2023-05-20T07:09:26.746Z,99.50
2023-05-20T07:11:53.616Z,99.40
2023-05-20T07:14:20.538Z,99.20
2023-05-20T07:16:47.442Z,99.30
2023-05-20T07:19:14.406Z,99.30
2023-05-20T07:21:41.429Z,99.00
2023-05-20T07:24:08.328Z,98.80
2023-05-20T07:26:36.508Z,98.80
2023-05-20T07:29:07.031Z,98.70
2023-05-20T07:31:34.051Z,98.30
2023-05-20T07:34:01.603Z,98.10
2023-05-20T07:36:29.055Z,98.20
2023-05-20T07:39:02.938Z,98.20
2023-05-20T07:41:31.343Z,98.00
2023-05-20T07:43:58.342Z,98.00
2023-05-20T07:46:25.504Z,97.90
2023-05-20T07:48:52.674Z,98.00
2023-05-20T07:51:19.535Z,97.90
2023-05-20T07:53:46.478Z,97.80
2023-05-20T07:56:13.358Z,98.20
2023-05-20T07:58:43.806Z,98.20
2023-05-20T08:01:11.683Z,98.20
2023-05-20T08:03:38.809Z,98.30
2023-05-20T08:06:06.030Z,98.20
2023-05-20T08:08:33.393Z,98.20
2023-05-20T08:11:01.687Z,98.20
2023-05-20T08:13:28.596Z,98.40
2023-05-20T08:15:55.975Z,98.50
2023-05-20T08:18:23.478Z,98.20
2023-05-20T08:20:51.005Z,98.30
2023-05-20T08:23:17.962Z,98.20
2023-05-20T08:25:46.943Z,98.10
2023-05-20T08:28:14.433Z,97.90
2023-05-20T08:30:41.704Z,98.00
2023-05-20T08:33:08.963Z,98.00
2023-05-20T08:35:39.536Z,97.70
2023-05-20T08:38:07.225Z,97.80
2023-05-20T08:40:37.196Z,98.00
2023-05-20T08:43:04.999Z,97.90
2023-05-20T08:45:35.054Z,97.50
2023-05-20T08:48:05.398Z,97.40
2023-05-20T08:50:32.326Z,97.50
2023-05-20T08:53:00.022Z,97.40
2023-05-20T08:55:38.183Z,97.50
2023-05-20T08:58:05.268Z,97.70
2023-05-20T09:00:32.235Z,97.20
2023-05-20T09:03:01.170Z,97.30
2023-05-20T09:05:28.704Z,97.50
2023-05-20T09:08:09.932Z,97.50
2023-05-20T09:10:39.029Z,97.40
2023-05-20T09:13:07.785Z,97.50
2023-05-20T09:15:36.676Z,97.50
2023-05-20T09:18:08.958Z,97.30
2023-05-20T09:20:37.891Z,97.30
2023-05-20T09:23:07.988Z,97.30
2023-05-20T09:25:36.722Z,97.20
2023-05-20T09:28:08.799Z,97.00
2023-05-20T09:30:35.984Z,97.00
2023-05-20T09:33:05.968Z,96.90
2023-05-20T09:35:39.128Z,96.80
2023-05-20T09:38:10.049Z,97.00
2023-05-20T09:40:41.190Z,96.60
2023-05-20T09:43:08.940Z,96.50
2023-05-20T09:45:39.698Z,96.30
2023-05-20T09:48:10.779Z,96.10
2023-05-20T09:50:38.294Z,96.20
2023-05-20T09:53:06.997Z,96.30
2023-05-20T09:55:34.851Z,95.60
2023-05-20T09:58:06.527Z,95.70
2023-05-20T10:00:34.578Z,95.90
2023-05-20T10:03:01.907Z,95.70
2023-05-20T10:05:49.982Z,95.80
2023-05-20T10:09:13.966Z,95.60
2023-05-20T10:12:12.742Z,95.80
2023-05-20T10:15:04.460Z,95.80
2023-05-20T10:18:20.093Z,95.50
2023-05-20T10:20:51.352Z,95.20
2023-05-20T10:23:23.842Z,94.90
2023-05-20T10:25:56.006Z,94.70
2023-05-20T10:28:40.083Z,95.10
2023-05-20T10:31:22.381Z,95.20
2023-05-20T10:33:53.182Z,94.90
2023-05-20T10:36:28.403Z,94.60
2023-05-20T10:38:57.263Z,94.60
2023-05-20T10:41:31.290Z,94.70
2023-05-20T10:44:03.112Z,94.40
2023-05-20T10:46:41.798Z,94.90
2023-05-20T10:49:25.381Z,95.30
2023-05-20T10:51:54.476Z,95.30
2023-05-20T10:54:22.936Z,94.90
2023-05-20T10:56:54.200Z,94.20
2023-05-20T10:59:22.079Z,94.40
2023-05-20T11:01:49.600Z,94.30
2023-05-20T11:04:17.647Z,93.50
2023-05-20T11:06:55.937Z,93.70
2023-05-20T11:09:23.553Z,93.30
2023-05-20T11:11:52.535Z,93.80
2023-05-20T11:14:20.232Z,93.10
2023-05-20T11:16:51.739Z,93.00
2023-05-20T11:19:19.382Z,93.00
2023-05-20T11:21:48.198Z,93.60
2023-05-20T11:24:26.450Z,93.20
2023-05-20T11:26:58.061Z,93.10
2023-05-20T11:29:26.998Z,93.20
2023-05-20T11:31:57.830Z,93.00
2023-05-20T11:34:26.851Z,93.20
2023-05-20T11:36:59.112Z,93.00
2023-05-20T11:39:30.049Z,92.80
2023-05-20T11:41:58.402Z,93.30
2023-05-20T11:44:26.288Z,93.50
2023-05-20T11:47:01.509Z,93.00
2023-05-20T11:49:28.743Z,92.10
2023-05-20T11:51:57.261Z,91.70
2023-05-20T11:54:24.874Z,91.90
2023-05-20T11:56:54.062Z,91.40
2023-05-20T11:59:23.720Z,90.60
2023-05-20T12:01:50.733Z,91.10
2023-05-20T12:04:18.548Z,90.70
2023-05-20T12:06:46.793Z,90.10
2023-05-20T12:09:14.290Z,90.20
2023-05-20T12:11:42.095Z,90.80
2023-05-20T12:14:09.398Z,91.20
2023-05-20T12:16:37.931Z,91.00
2023-05-20T12:19:05.758Z,91.40
2023-05-20T12:21:32.963Z,91.30
2023-05-20T12:24:00.143Z,91.40
2023-05-20T12:26:29.493Z,91.20
2023-05-20T12:28:57.294Z,91.80
2023-05-20T12:31:25.311Z,91.90
2023-05-20T12:33:52.263Z,91.90
2023-05-20T12:36:19.877Z,91.70
2023-05-20T12:38:47.258Z,91.60
2023-05-20T12:41:14.239Z,91.80
2023-05-20T12:43:41.206Z,91.70
2023-05-20T12:46:08.412Z,91.50
2023-05-20T12:48:35.580Z,91.70
2023-05-20T12:51:02.497Z,91.20
2023-05-20T12:53:29.378Z,90.90
2023-05-20T12:55:56.366Z,90.90
2023-05-20T12:58:23.468Z,90.80
2023-05-20T13:00:50.459Z,90.40
2023-05-20T13:03:17.690Z,89.50
2023-05-20T13:05:44.930Z,87.20
2023-05-20T13:08:12.707Z,89.30
2023-05-20T13:10:39.654Z,89.90
2023-05-20T13:13:06.680Z,90.50
2023-05-20T13:15:33.792Z,89.70
2023-05-20T13:18:01.596Z,90.00
2023-05-20T13:20:29.939Z,87.90
2023-05-20T13:22:56.840Z,88.30
2023-05-20T13:25:23.893Z,88.20
2023-05-20T13:27:50.976Z,88.80
2023-05-20T13:30:18.075Z,88.40
2023-05-20T13:32:45.149Z,87.40
2023-05-20T13:35:13.184Z,87.30
2023-05-20T13:37:40.165Z,87.00
2023-05-20T13:40:08.642Z,86.10
2023-05-20T13:42:35.562Z,86.30
2023-05-20T13:45:02.592Z,87.10
2023-05-20T13:47:29.541Z,87.00
2023-05-20T13:49:56.942Z,87.60
2023-05-20T13:52:23.968Z,87.50
2023-05-20T13:54:50.952Z,87.50
2023-05-20T13:57:17.846Z,86.70
2023-05-20T13:59:44.804Z,86.50
2023-05-20T14:02:11.799Z,84.80
2023-05-20T14:04:39.945Z,85.70
2023-05-20T14:07:09.549Z,86.20
2023-05-20T14:09:36.899Z,86.20
2023-05-20T14:12:05.050Z,84.50
2023-05-20T14:14:32.068Z,84.70
2023-05-20T14:16:59.017Z,84.40
2023-05-20T14:19:27.133Z,84.90
2023-05-20T14:21:54.208Z,85.60
2023-05-20T14:24:23.434Z,86.20
2023-05-20T14:26:50.837Z,87.20
2023-05-20T14:29:17.837Z,86.00
2023-05-20T14:31:45.211Z,87.00
2023-05-20T14:34:12.205Z,87.90
2023-05-20T14:36:39.387Z,87.40
2023-05-20T14:39:06.362Z,86.50
2023-05-20T14:41:33.240Z,86.80
2023-05-20T14:44:00.144Z,85.40
2023-05-20T14:46:27.274Z,85.70
2023-05-20T14:48:54.248Z,86.20
2023-05-20T14:51:21.143Z,86.80
2023-05-20T14:53:48.054Z,86.40
2023-05-20T14:56:14.908Z,86.50
2023-05-20T14:58:42.044Z,87.30
2023-05-20T15:01:09.294Z,87.70
2023-05-20T15:03:36.771Z,88.40
2023-05-20T15:06:04.088Z,88.70
2023-05-20T15:08:31.446Z,88.60
2023-05-20T15:10:58.628Z,88.50
2023-05-20T15:13:25.612Z,88.90
2023-05-20T15:15:53.370Z,89.20
2023-05-20T15:18:20.338Z,89.60
2023-05-20T15:20:47.272Z,89.10
2023-05-20T15:23:14.159Z,89.10
2023-05-20T15:25:41.097Z,89.70
2023-05-20T15:28:07.979Z,89.30
2023-05-20T15:30:35.071Z,87.60
2023-05-20T15:33:02.933Z,88.00
2023-05-20T15:35:29.921Z,87.50
2023-05-20T15:37:56.940Z,88.20
2023-05-20T15:40:23.851Z,87.90
2023-05-20T15:42:51.494Z,87.30
2023-05-20T15:45:19.611Z,86.50
2023-05-20T15:47:46.662Z,86.80
2023-05-20T15:50:13.502Z,87.50
2023-05-20T15:52:40.542Z,87.50
2023-05-20T15:55:08.684Z,88.10
2023-05-20T15:57:35.690Z,88.50
2023-05-20T16:00:06.297Z,88.20
2023-05-20T16:02:36.113Z,89.00
2023-05-20T16:05:04.700Z,89.10
2023-05-20T16:07:31.749Z,88.90
2023-05-20T16:09:58.806Z,88.30
2023-05-20T16:12:25.938Z,88.50
2023-05-20T16:14:52.856Z,88.50
2023-05-20T16:17:21.731Z,89.10
2023-05-20T16:19:49.033Z,90.00
2023-05-20T16:22:16.442Z,90.10
2023-05-20T16:24:43.330Z,89.50
2023-05-20T16:27:11.528Z,89.60
2023-05-20T16:29:39.907Z,90.00
2023-05-20T16:32:07.715Z,90.10
2023-05-20T16:34:34.745Z,90.30
2023-05-20T16:37:01.917Z,90.00
2023-05-20T16:39:28.939Z,90.10
2023-05-20T16:41:55.954Z,90.20
2023-05-20T16:44:26.145Z,90.30
2023-05-20T16:46:55.983Z,90.60
2023-05-20T16:49:23.372Z,91.60
2023-05-20T16:51:52.282Z,91.10
2023-05-20T16:54:19.274Z,90.80
2023-05-20T16:56:46.384Z,90.80
2023-05-20T16:59:14.717Z,90.80
2023-05-20T17:01:41.742Z,91.00
2023-05-20T17:04:09.292Z,90.90
2023-05-20T17:06:36.239Z,90.90
2023-05-20T17:09:04.570Z,91.10
2023-05-20T17:11:31.551Z,91.10
2023-05-20T17:13:58.373Z,91.10
2023-05-20T17:16:25.562Z,91.20
2023-05-20T17:18:53.613Z,91.40
2023-05-20T17:21:20.814Z,91.50
2023-05-20T17:23:47.866Z,91.50
2023-05-20T17:26:15.796Z,91.70
2023-05-20T17:28:42.896Z,91.70
2023-05-20T17:31:09.891Z,91.80
2023-05-20T17:33:37.001Z,91.60
2023-05-20T17:36:04.693Z,91.80
2023-05-20T17:38:31.666Z,91.60
2023-05-20T17:40:58.577Z,91.70
2023-05-20T17:43:25.644Z,91.90
2023-05-20T17:45:52.669Z,92.10
2023-05-20T17:48:19.894Z,92.00
2023-05-20T17:50:46.767Z,92.10
2023-05-20T17:53:13.678Z,92.00
2023-05-20T17:55:40.764Z,92.10
2023-05-20T17:58:07.669Z,92.20
2023-05-20T18:00:41.922Z,92.30
2023-05-20T18:03:10.332Z,92.40
2023-05-20T18:05:37.604Z,92.40
2023-05-20T18:08:04.958Z,92.60
2023-05-20T18:10:31.800Z,92.50
2023-05-20T18:12:58.672Z,92.60
2023-05-20T18:15:25.717Z,92.70
2023-05-20T18:17:52.779Z,92.80
2023-05-20T18:20:19.921Z,92.80
2023-05-20T18:22:47.000Z,92.80
2023-05-20T18:25:15.044Z,92.90
2023-05-20T18:27:42.804Z,93.00
2023-05-20T18:30:10.710Z,92.90
2023-05-20T18:32:38.871Z,93.00
2023-05-20T18:35:06.822Z,93.10
2023-05-20T18:37:34.190Z,93.10
2023-05-20T18:40:01.142Z,93.10
2023-05-20T18:42:28.139Z,93.20
2023-05-20T18:44:55.056Z,93.20
2023-05-20T18:47:22.058Z,93.30
2023-05-20T18:49:48.993Z,93.30
2023-05-20T18:52:16.245Z,93.40
2023-05-20T18:54:43.150Z,93.30
2023-05-20T18:57:10.134Z,93.40
2023-05-20T18:59:37.062Z,93.40
2023-05-20T19:02:03.999Z,93.50
2023-05-20T19:04:31.535Z,93.50
2023-05-20T19:06:59.104Z,93.50
2023-05-20T19:09:26.275Z,93.50
2023-05-20T19:11:56.793Z,93.60
2023-05-20T19:14:23.727Z,93.60
2023-05-20T19:16:50.762Z,93.60
2023-05-20T19:19:18.063Z,93.70
2023-05-20T19:21:45.106Z,93.80
2023-05-20T19:24:12.040Z,93.80
2023-05-20T19:26:39.652Z,93.80
2023-05-20T19:29:06.955Z,93.90
2023-05-20T19:31:33.926Z,94.00
2023-05-20T19:34:00.857Z,94.00
2023-05-20T19:36:27.766Z,94.00
2023-05-20T19:38:54.675Z,94.00
2023-05-20T19:41:22.632Z,94.10
2023-05-20T19:43:49.568Z,94.20
2023-05-20T19:46:16.652Z,94.20
2023-05-20T19:48:43.607Z,94.20
2023-05-20T19:51:10.959Z,94.10
2023-05-20T19:53:38.632Z,94.10
2023-05-20T19:56:07.811Z,94.20
2023-05-20T19:58:34.716Z,94.30
2023-05-20T20:01:02.157Z,94.40
2023-05-20T20:03:29.042Z,94.40
2023-05-20T20:05:57.089Z,94.50
2023-05-20T20:08:24.209Z,94.70
2023-05-20T20:10:51.122Z,94.80
2023-05-20T20:13:18.170Z,94.90
2023-05-20T20:15:45.140Z,95.10
2023-05-20T20:18:12.134Z,95.40
2023-05-20T20:20:41.640Z,95.60
2023-05-20T20:23:09.625Z,95.80
2023-05-20T20:25:39.121Z,95.90
2023-05-20T20:28:07.870Z,95.90
2023-05-20T20:30:36.190Z,96.00
2023-05-20T20:33:06.438Z,96.10
2023-05-20T20:35:34.529Z,96.30
2023-05-20T20:38:08.329Z,96.60
2023-05-20T20:40:42.483Z,96.80
2023-05-20T20:43:11.173Z,96.80
2023-05-20T20:45:38.232Z,97.00
2023-05-20T20:48:07.887Z,97.00
2023-05-20T20:50:36.567Z,97.00
2023-05-20T20:53:03.812Z,97.20
2023-05-20T20:55:30.742Z,97.30
2023-05-20T20:58:02.699Z,97.40
2023-05-20T21:00:29.759Z,97.50
2023-05-20T21:02:56.805Z,97.60
2023-05-20T21:05:26.533Z,97.70
2023-05-20T21:07:58.321Z,97.70
2023-05-20T21:10:29.761Z,97.80
2023-05-20T21:12:59.758Z,97.90
2023-05-20T21:15:27.368Z,98.00
2023-05-20T21:17:54.464Z,98.00
2023-05-20T21:20:21.999Z,98.20
2023-05-20T21:22:49.060Z,98.50
2023-05-20T21:25:16.071Z,98.40
2023-05-20T21:27:42.998Z,98.40
2023-05-20T21:30:11.531Z,98.40
2023-05-20T21:32:39.193Z,98.40
2023-05-20T21:35:07.133Z,98.50
2023-05-20T21:37:33.993Z,98.50
2023-05-20T21:40:01.008Z,98.50
2023-05-20T21:42:27.942Z,98.50
2023-05-20T21:44:54.967Z,98.60
2023-05-20T21:47:21.861Z,98.60
2023-05-20T21:49:48.777Z,98.60
2023-05-20T21:52:15.758Z,98.60
2023-05-20T21:54:42.659Z,98.70
2023-05-20T21:57:09.558Z,98.80
2023-05-20T21:59:36.745Z,98.80
2023-05-20T22:02:04.019Z,98.80
2023-05-20T22:04:33.333Z,98.90
2023-05-20T22:07:00.397Z,98.90
2023-05-20T22:09:27.412Z,99.00
2023-05-20T22:11:54.481Z,99.00
2023-05-20T22:14:22.009Z,99.00
2023-05-20T22:16:49.002Z,99.00
2023-05-20T22:19:17.017Z,99.00
2023-05-20T22:21:50.644Z,99.00
2023-05-20T22:24:18.322Z,99.20
2023-05-20T22:26:45.370Z,99.20
2023-05-20T22:29:12.401Z,99.20
2023-05-20T22:31:39.419Z,99.20
2023-05-20T22:34:06.354Z,99.20
2023-05-20T22:36:34.218Z,99.30
2023-05-20T22:39:02.421Z,99.30
2023-05-20T22:41:29.448Z,99.40
2023-05-20T22:43:59.120Z,99.40
2023-05-20T22:46:26.346Z,99.50
2023-05-20T22:48:53.369Z,99.50
2023-05-20T22:51:21.754Z,99.50
2023-05-20T22:53:49.315Z,99.50
2023-05-20T22:56:17.552Z,99.50
2023-05-20T22:58:45.956Z,99.50
2023-05-20T23:01:13.286Z,99.70
2023-05-20T23:03:40.451Z,99.60
2023-05-20T23:06:07.337Z,99.70
2023-05-20T23:08:34.203Z,99.80
2023-05-20T23:11:01.167Z,99.90
2023-05-20T23:13:28.313Z,99.90
2023-05-20T23:15:55.204Z,99.90
2023-05-20T23:18:22.125Z,99.90
2023-05-20T23:20:49.165Z,99.90
2023-05-20T23:23:16.532Z,99.90
2023-05-20T23:25:45.841Z,99.90
2023-05-20T23:28:12.928Z,99.90
2023-05-20T23:30:39.938Z,99.90
2023-05-20T23:33:07.415Z,99.90
2023-05-20T23:35:34.564Z,99.90
2023-05-20T23:38:01.643Z,99.90
2023-05-20T23:40:28.519Z,99.90
2023-05-20T23:42:55.364Z,99.90
2023-05-20T23:45:22.260Z,99.90
2023-05-20T23:47:49.477Z,99.90
2023-05-20T23:50:16.605Z,99.90
2023-05-20T23:52:43.519Z,99.90
2023-05-20T23:55:13.413Z,99.90
2023-05-20T23:57:43.602Z,99.90
